EDT,Max TemperatureF,Mean TemperatureF,Min TemperatureF,Max Dew PointF,MeanDew PointF,Min DewpointF,Max Humidity, Mean Humidity, Min Humidity, Max Sea Level PressureIn, Mean Sea Level PressureIn, Min Sea Level PressureIn, Max VisibilityMiles, Mean VisibilityMiles, Min VisibilityMiles, Max Wind SpeedMPH, Mean Wind SpeedMPH, Max Gust SpeedMPH,PrecipitationIn, CloudCover, Events, WindDirDegrees
2011-10-1,62,55,48,60,55,44,100,93,82,29.81,29.68,29.62,10,8,0,13,4,21,0.11,7,Fog-Rain,343
2011-10-2,61,54,46,57,53,45,100,92,83,29.92,29.85,29.80,10,10,6,8,5,,0.00,8,Rain,7
2011-10-3,62,55,50,54,51,43,100,90,55,30.07,30.00,29.92,10,6,0,9,1,,0.05,7,Fog-Rain,186
2011-10-4,57,54,50,54,51,50,100,93,86,30.04,29.98,29.95,10,10,5,12,4,20,0.53,8,Rain,331
2011-10-5,64,50,37,51,44,33,93,72,40,30.26,30.04,29.95,10,10,10,20,8,34,0.00,3,,327
2011-10-6,62,46,30,36,31,21,100,82,21,30.37,30.29,30.25,10,5,0,14,1,21,0.00,2,Fog,321
2011-10-7,64,48,32,45,35,26,100,78,26,30.48,30.43,30.37,10,8,0,9,1,,0.00,1,Fog,278
2011-10-8,78,57,37,57,48,37,100,87,37,30.48,30.41,30.37,10,6,0,6,0,,0.00,2,Fog,187
2011-10-9,82,64,46,57,51,45,100,85,32,30.41,30.33,30.26,10,4,0,6,0,,0.01,2,Fog,285
2011-10-10,82,62,43,61,51,43,100,86,39,30.26,30.21,30.13,10,4,0,13,1,18,0.01,1,Fog,1
2011-10-11,70,58,46,54,48,38,100,91,32,30.27,30.21,30.18,10,3,0,6,0,,0.00,2,Fog,62
2011-10-12,60,54,48,52,47,42,96,81,53,30.25,30.18,30.07,10,10,8,10,2,,0.02,4,Rain,37
2011-10-13,62,58,53,57,55,53,100,90,80,30.03,29.88,29.78,10,9,4,9,4,,0.13,8,Rain,10
2011-10-14,68,62,57,65,60,53,100,93,87,29.77,29.50,29.31,10,7,1,13,4,31,1.42,7,Rain-Thunderstorm,145
2011-10-15,61,55,50,52,44,36,94,70,46,29.65,29.52,29.38,10,10,10,21,12,32,0.04,4,Rain-Thunderstorm,211
2011-10-16,63,56,50,44,37,34,67,51,38,29.79,29.71,29.62,10,10,10,15,10,23,0.00,5,,230
2011-10-17,62,52,43,47,39,30,85,60,32,29.72,29.66,29.60,10,10,10,18,9,31,0.01,3,Rain,228
2011-10-18,62,48,35,45,39,34,97,77,36,29.96,29.84,29.73,10,10,9,12,1,,0.00,3,,210
2011-10-19,59,50,42,52,48,41,97,88,59,29.97,29.83,29.60,10,8,3,13,4,21,0.49,6,Rain,35
2011-10-20,70,60,52,61,51,40,96,80,54,29.65,29.51,29.40,10,10,5,24,7,33,0.27,6,Rain,141
2011-10-21,59,52,46,45,41,39,86,67,51,29.96,29.82,29.66,10,10,10,17,4,24,0.00,4,,244
2011-10-22,55,46,37,45,41,36,97,77,53,30.10,30.02,29.96,10,10,10,13,2,18,0.00,6,,285
2011-10-23,53,43,32,40,35,31,100,90,47,30.17,30.13,30.09,10,5,0,4,0,,0.00,3,Fog,318
2011-10-24,57,44,32,48,38,31,100,88,59,30.16,30.08,29.94,10,6,0,10,2,,0.13,6,Fog-Rain,191
2011-10-25,55,45,34,47,36,31,100,84,40,30.01,29.93,29.90,10,5,0,21,3,29,0.00,2,Fog,274
2011-10-26,45,38,30,43,40,29,97,92,81,30.02,29.87,29.77,10,10,9,5,0,,0.04,7,Rain,352
2011-10-27,44,38,33,43,37,30,100,92,87,29.92,29.76,29.69,10,7,2,10,4,,0.82,8,Rain-Snow,357
2011-10-28,44,36,28,31,29,25,96,82,56,30.28,30.15,29.90,10,10,10,10,3,,0.00,1,,320
2011-10-29,37,32,28,32,30,26,100,92,65,30.28,30.11,29.89,10,3,0,15,4,24,1.21,6,Fog-Snow,10
2011-10-30,37,32,30,30,30,29,100,93,76,30.04,29.87,29.82,10,3,0,18,13,24,0.20,1,Fog-Snow,337
2011-10-31,30,30,30,30,30,30,96,96,96,30.39,30.39,30.39,9,7,4,0,0,,0.00,0,,-1